sensor_id;sensor_type;location;lat;lon;timestamp;P1;durP1;ratioP1;P2;durP2;ratioP2
79128;SDS011;68529;43.286;23.360;2023-05-10T00:02:06;15.63;;;14.17;;
79128;SDS011;68529;43.286;23.360;2023-05-10T00:04:32;15.60;;;14.20;;
79128;SDS011;68529;43.286;23.360;2023-05-10T00:06:58;15.37;;;13.97;;
79128;SDS011;68529;43.286;23.360;2023-05-10T00:09:23;15.07;;;13.67;;
79128;SDS011;68529;43.286;23.360;2023-05-10T00:11:49;15.53;;;13.93;;
79128;SDS011;68529;43.286;23.360;2023-05-10T00:14:15;15.07;;;13.77;;
79128;SDS011;68529;43.286;23.360;2023-05-10T00:16:40;17.43;;;15.83;;
79128;SDS011;68529;43.286;23.360;2023-05-10T00:19:05;17.33;;;15.63;;
79128;SDS011;68529;43.286;23.360;2023-05-10T00:21:31;17.70;;;15.90;;
79128;SDS011;68529;43.286;23.360;2023-05-10T00:23:57;17.73;;;15.97;;
79128;SDS011;68529;43.286;23.360;2023-05-10T00:26:22;18.93;;;16.67;;
79128;SDS011;68529;43.286;23.360;2023-05-10T00:28:48;17.87;;;15.80;;
79128;SDS011;68529;43.286;23.360;2023-05-10T00:31:13;19.43;;;17.63;;
79128;SDS011;68529;43.286;23.360;2023-05-10T00:33:39;17.20;;;15.60;;
79128;SDS011;68529;43.286;23.360;2023-05-10T00:36:05;19.23;;;16.73;;
79128;SDS011;68529;43.286;23.360;2023-05-10T00:38:32;18.77;;;17.07;;
79128;SDS011;68529;43.286;23.360;2023-05-10T00:40:58;17.27;;;15.57;;
79128;SDS011;68529;43.286;23.360;2023-05-10T00:43:23;20.10;;;18.10;;
79128;SDS011;68529;43.286;23.360;2023-05-10T00:45:49;21.20;;;19.00;;
79128;SDS011;68529;43.286;23.360;2023-05-10T00:48:15;21.33;;;19.33;;
79128;SDS011;68529;43.286;23.360;2023-05-10T00:50:40;20.23;;;17.97;;
79128;SDS011;68529;43.286;23.360;2023-05-10T00:53:06;19.27;;;17.37;;
79128;SDS011;68529;43.286;23.360;2023-05-10T00:55:33;19.87;;;17.97;;
79128;SDS011;68529;43.286;23.360;2023-05-10T00:57:58;20.13;;;18.30;;
79128;SDS011;68529;43.286;23.360;2023-05-10T01:00:24;19.83;;;17.87;;
79128;SDS011;68529;43.286;23.360;2023-05-10T01:02:50;20.20;;;18.30;;
79128;SDS011;68529;43.286;23.360;2023-05-10T01:05:18;20.70;;;18.83;;
79128;SDS011;68529;43.286;23.360;2023-05-10T01:07:44;20.43;;;18.27;;
79128;SDS011;68529;43.286;23.360;2023-05-10T01:10:09;20.47;;;18.43;;
79128;SDS011;68529;43.286;23.360;2023-05-10T01:12:37;20.27;;;18.27;;
79128;SDS011;68529;43.286;23.360;2023-05-10T01:15:05;20.63;;;18.67;;
79128;SDS011;68529;43.286;23.360;2023-05-10T01:17:33;20.00;;;18.10;;
79128;SDS011;68529;43.286;23.360;2023-05-10T01:20:03;19.70;;;17.60;;
79128;SDS011;68529;43.286;23.360;2023-05-10T01:33:52;18.50;;;16.77;;
79128;SDS011;68529;43.286;23.360;2023-05-10T01:36:29;19.53;;;17.47;;
79128;SDS011;68529;43.286;23.360;2023-05-10T01:39:05;19.97;;;17.97;;
79128;SDS011;68529;43.286;23.360;2023-05-10T01:41:52;19.63;;;17.90;;
79128;SDS011;68529;43.286;23.360;2023-05-10T01:44:31;19.90;;;18.10;;
79128;SDS011;68529;43.286;23.360;2023-05-10T01:47:14;20.83;;;18.73;;
79128;SDS011;68529;43.286;23.360;2023-05-10T01:49:49;19.50;;;17.73;;
79128;SDS011;68529;43.286;23.360;2023-05-10T01:52:18;19.93;;;18.03;;
79128;SDS011;68529;43.286;23.360;2023-05-10T01:54:48;19.43;;;17.60;;
79128;SDS011;68529;43.286;23.360;2023-05-10T01:57:19;19.67;;;17.67;;
79128;SDS011;68529;43.286;23.360;2023-05-10T01:59:50;19.00;;;17.07;;
79128;SDS011;68529;43.286;23.360;2023-05-10T02:02:16;20.13;;;17.87;;
79128;SDS011;68529;43.286;23.360;2023-05-10T02:04:43;17.93;;;16.33;;
79128;SDS011;68529;43.286;23.360;2023-05-10T02:07:11;19.17;;;17.20;;
79128;SDS011;68529;43.286;23.360;2023-05-10T02:09:38;18.57;;;16.87;;
79128;SDS011;68529;43.286;23.360;2023-05-10T02:12:04;17.80;;;16.10;;
79128;SDS011;68529;43.286;23.360;2023-05-10T02:14:32;20.50;;;18.57;;
79128;SDS011;68529;43.286;23.360;2023-05-10T02:17:00;19.53;;;17.63;;
79128;SDS011;68529;43.286;23.360;2023-05-10T02:19:28;19.20;;;17.30;;
79128;SDS011;68529;43.286;23.360;2023-05-10T02:21:55;16.77;;;15.20;;
79128;SDS011;68529;43.286;23.360;2023-05-10T02:24:21;19.77;;;17.97;;
79128;SDS011;68529;43.286;23.360;2023-05-10T02:26:49;19.97;;;18.07;;
79128;SDS011;68529;43.286;23.360;2023-05-10T02:29:18;19.80;;;17.77;;
79128;SDS011;68529;43.286;23.360;2023-05-10T02:31:45;19.60;;;17.63;;
79128;SDS011;68529;43.286;23.360;2023-05-10T02:34:11;17.17;;;15.67;;
79128;SDS011;68529;43.286;23.360;2023-05-10T02:36:38;17.97;;;16.23;;
79128;SDS011;68529;43.286;23.360;2023-05-10T02:39:06;16.67;;;15.10;;
79128;SDS011;68529;43.286;23.360;2023-05-10T02:41:35;17.50;;;15.73;;
79128;SDS011;68529;43.286;23.360;2023-05-10T02:44:01;18.00;;;16.20;;
79128;SDS011;68529;43.286;23.360;2023-05-10T02:46:28;19.17;;;17.33;;
79128;SDS011;68529;43.286;23.360;2023-05-10T02:48:54;18.00;;;16.33;;
79128;SDS011;68529;43.286;23.360;2023-05-10T02:51:19;17.47;;;15.77;;
79128;SDS011;68529;43.286;23.360;2023-05-10T02:53:49;17.90;;;16.30;;
79128;SDS011;68529;43.286;23.360;2023-05-10T02:56:25;17.40;;;15.73;;
79128;SDS011;68529;43.286;23.360;2023-05-10T02:58:56;17.63;;;15.73;;
79128;SDS011;68529;43.286;23.360;2023-05-10T03:01:22;16.97;;;15.37;;
79128;SDS011;68529;43.286;23.360;2023-05-10T03:03:47;16.50;;;14.97;;
79128;SDS011;68529;43.286;23.360;2023-05-10T03:06:13;17.00;;;15.30;;
79128;SDS011;68529;43.286;23.360;2023-05-10T03:08:38;16.20;;;14.70;;
79128;SDS011;68529;43.286;23.360;2023-05-10T03:11:20;17.00;;;15.30;;
79128;SDS011;68529;43.286;23.360;2023-05-10T03:16:54;16.47;;;14.87;;
79128;SDS011;68529;43.286;23.360;2023-05-10T03:22:10;15.70;;;14.33;;
79128;SDS011;68529;43.286;23.360;2023-05-10T03:24:38;15.13;;;13.80;;
79128;SDS011;68529;43.286;23.360;2023-05-10T03:27:06;14.37;;;13.10;;
79128;SDS011;68529;43.286;23.360;2023-05-10T03:29:33;13.37;;;12.23;;
79128;SDS011;68529;43.286;23.360;2023-05-10T03:31:59;13.47;;;12.37;;
79128;SDS011;68529;43.286;23.360;2023-05-10T03:34:25;12.43;;;11.33;;
79128;SDS011;68529;43.286;23.360;2023-05-10T03:36:51;12.00;;;10.77;;
79128;SDS011;68529;43.286;23.360;2023-05-10T03:39:17;11.80;;;10.60;;
79128;SDS011;68529;43.286;23.360;2023-05-10T03:41:42;10.97;;;9.97;;
79128;SDS011;68529;43.286;23.360;2023-05-10T03:44:07;11.00;;;10.10;;
79128;SDS011;68529;43.286;23.360;2023-05-10T03:46:33;11.57;;;9.47;;
79128;SDS011;68529;43.286;23.360;2023-05-10T03:48:58;25.37;;;22.63;;
79128;SDS011;68529;43.286;23.360;2023-05-10T03:51:24;31.53;;;27.23;;
79128;SDS011;68529;43.286;23.360;2023-05-10T03:53:53;14.57;;;13.17;;
79128;SDS011;68529;43.286;23.360;2023-05-10T03:56:19;12.53;;;11.50;;
79128;SDS011;68529;43.286;23.360;2023-05-10T03:58:45;10.40;;;9.53;;
79128;SDS011;68529;43.286;23.360;2023-05-10T04:01:11;11.37;;;8.60;;
79128;SDS011;68529;43.286;23.360;2023-05-10T04:03:36;15.60;;;14.40;;
79128;SDS011;68529;43.286;23.360;2023-05-10T04:06:03;15.27;;;13.90;;
79128;SDS011;68529;43.286;23.360;2023-05-10T04:08:28;11.90;;;10.80;;
79128;SDS011;68529;43.286;23.360;2023-05-10T04:10:54;11.43;;;10.43;;
79128;SDS011;68529;43.286;23.360;2023-05-10T04:13:20;9.17;;;8.27;;
79128;SDS011;68529;43.286;23.360;2023-05-10T04:15:46;10.07;;;9.17;;
79128;SDS011;68529;43.286;23.360;2023-05-10T04:18:12;10.17;;;9.20;;
79128;SDS011;68529;43.286;23.360;2023-05-10T04:20:37;9.97;;;9.10;;
79128;SDS011;68529;43.286;23.360;2023-05-10T04:23:02;9.33;;;8.53;;
79128;SDS011;68529;43.286;23.360;2023-05-10T04:25:28;11.40;;;10.43;;
79128;SDS011;68529;43.286;23.360;2023-05-10T04:27:53;13.10;;;11.90;;
79128;SDS011;68529;43.286;23.360;2023-05-10T04:30:18;9.40;;;8.63;;
79128;SDS011;68529;43.286;23.360;2023-05-10T04:32:44;9.97;;;9.17;;
79128;SDS011;68529;43.286;23.360;2023-05-10T04:35:09;10.07;;;9.17;;
79128;SDS011;68529;43.286;23.360;2023-05-10T04:37:35;10.27;;;9.43;;
79128;SDS011;68529;43.286;23.360;2023-05-10T04:40:01;10.23;;;9.27;;
79128;SDS011;68529;43.286;23.360;2023-05-10T04:42:28;17.13;;;15.37;;
79128;SDS011;68529;43.286;23.360;2023-05-10T04:44:53;11.40;;;10.30;;
79128;SDS011;68529;43.286;23.360;2023-05-10T04:47:19;16.23;;;14.60;;
79128;SDS011;68529;43.286;23.360;2023-05-10T04:49:44;10.10;;;9.17;;
79128;SDS011;68529;43.286;23.360;2023-05-10T04:52:10;10.80;;;9.83;;
79128;SDS011;68529;43.286;23.360;2023-05-10T04:54:36;12.00;;;10.90;;
79128;SDS011;68529;43.286;23.360;2023-05-10T04:57:01;11.37;;;10.27;;
79128;SDS011;68529;43.286;23.360;2023-05-10T04:59:27;14.47;;;13.20;;
79128;SDS011;68529;43.286;23.360;2023-05-10T05:01:52;27.93;;;24.43;;
79128;SDS011;68529;43.286;23.360;2023-05-10T05:04:18;32.13;;;28.80;;
79128;SDS011;68529;43.286;23.360;2023-05-10T05:06:43;15.13;;;12.70;;
79128;SDS011;68529;43.286;23.360;2023-05-10T05:09:08;19.47;;;17.47;;
79128;SDS011;68529;43.286;23.360;2023-05-10T05:11:35;13.73;;;12.43;;
79128;SDS011;68529;43.286;23.360;2023-05-10T05:14:00;14.10;;;12.77;;
79128;SDS011;68529;43.286;23.360;2023-05-10T05:16:26;16.97;;;15.47;;
79128;SDS011;68529;43.286;23.360;2023-05-10T05:18:51;14.70;;;13.13;;
79128;SDS011;68529;43.286;23.360;2023-05-10T05:21:17;14.50;;;13.07;;
79128;SDS011;68529;43.286;23.360;2023-05-10T05:23:44;16.17;;;14.67;;
79128;SDS011;68529;43.286;23.360;2023-05-10T05:26:10;15.37;;;13.97;;
79128;SDS011;68529;43.286;23.360;2023-05-10T05:28:36;15.97;;;14.30;;
79128;SDS011;68529;43.286;23.360;2023-05-10T05:31:05;13.63;;;12.43;;
79128;SDS011;68529;43.286;23.360;2023-05-10T05:33:32;17.23;;;15.63;;
79128;SDS011;68529;43.286;23.360;2023-05-10T05:35:59;15.73;;;14.23;;
79128;SDS011;68529;43.286;23.360;2023-05-10T05:38:25;16.80;;;15.10;;
79128;SDS011;68529;43.286;23.360;2023-05-10T05:40:51;14.67;;;13.37;;
79128;SDS011;68529;43.286;23.360;2023-05-10T05:43:16;13.43;;;12.07;;
79128;SDS011;68529;43.286;23.360;2023-05-10T05:45:41;14.07;;;12.70;;
79128;SDS011;68529;43.286;23.360;2023-05-10T05:48:07;14.90;;;13.37;;
79128;SDS011;68529;43.286;23.360;2023-05-10T05:50:32;13.87;;;12.57;;
79128;SDS011;68529;43.286;23.360;2023-05-10T05:52:58;15.10;;;13.70;;
79128;SDS011;68529;43.286;23.360;2023-05-10T05:55:23;14.47;;;13.07;;
79128;SDS011;68529;43.286;23.360;2023-05-10T05:57:49;15.03;;;13.73;;
79128;SDS011;68529;43.286;23.360;2023-05-10T06:00:14;15.33;;;13.90;;
79128;SDS011;68529;43.286;23.360;2023-05-10T06:02:40;14.13;;;12.83;;
79128;SDS011;68529;43.286;23.360;2023-05-10T06:05:06;13.77;;;12.37;;
79128;SDS011;68529;43.286;23.360;2023-05-10T06:07:31;12.93;;;11.73;;
79128;SDS011;68529;43.286;23.360;2023-05-10T06:09:57;13.10;;;11.90;;
79128;SDS011;68529;43.286;23.360;2023-05-10T06:12:22;15.67;;;14.23;;
79128;SDS011;68529;43.286;23.360;2023-05-10T06:14:48;13.63;;;12.40;;
79128;SDS011;68529;43.286;23.360;2023-05-10T06:17:13;14.10;;;12.67;;
79128;SDS011;68529;43.286;23.360;2023-05-10T06:19:38;14.50;;;13.10;;
79128;SDS011;68529;43.286;23.360;2023-05-10T06:22:04;13.77;;;12.53;;
79128;SDS011;68529;43.286;23.360;2023-05-10T06:24:30;13.40;;;12.10;;
79128;SDS011;68529;43.286;23.360;2023-05-10T06:26:55;16.33;;;14.73;;
79128;SDS011;68529;43.286;23.360;2023-05-10T06:29:20;15.93;;;14.50;;
79128;SDS011;68529;43.286;23.360;2023-05-10T06:31:46;18.13;;;16.13;;
79128;SDS011;68529;43.286;23.360;2023-05-10T06:34:11;17.37;;;15.73;;
79128;SDS011;68529;43.286;23.360;2023-05-10T06:36:37;17.10;;;15.40;;
79128;SDS011;68529;43.286;23.360;2023-05-10T06:39:02;18.00;;;16.13;;
79128;SDS011;68529;43.286;23.360;2023-05-10T06:41:28;17.10;;;15.33;;
79128;SDS011;68529;43.286;23.360;2023-05-10T06:43:53;16.43;;;14.77;;
79128;SDS011;68529;43.286;23.360;2023-05-10T06:46:19;16.63;;;14.97;;
79128;SDS011;68529;43.286;23.360;2023-05-10T06:48:44;14.53;;;13.13;;
79128;SDS011;68529;43.286;23.360;2023-05-10T06:51:09;14.13;;;12.73;;
79128;SDS011;68529;43.286;23.360;2023-05-10T06:53:35;14.50;;;13.20;;
79128;SDS011;68529;43.286;23.360;2023-05-10T06:56:01;14.37;;;12.97;;
79128;SDS011;68529;43.286;23.360;2023-05-10T06:58:28;13.20;;;12.00;;
79128;SDS011;68529;43.286;23.360;2023-05-10T07:00:53;12.73;;;11.57;;
79128;SDS011;68529;43.286;23.360;2023-05-10T07:03:18;14.07;;;12.83;;
79128;SDS011;68529;43.286;23.360;2023-05-10T07:05:44;14.60;;;13.20;;
79128;SDS011;68529;43.286;23.360;2023-05-10T07:08:09;13.73;;;12.50;;
79128;SDS011;68529;43.286;23.360;2023-05-10T07:10:35;14.07;;;12.77;;
79128;SDS011;68529;43.286;23.360;2023-05-10T07:13:01;12.67;;;11.57;;
79128;SDS011;68529;43.286;23.360;2023-05-10T07:15:26;13.30;;;12.00;;
79128;SDS011;68529;43.286;23.360;2023-05-10T07:17:52;13.00;;;11.70;;
79128;SDS011;68529;43.286;23.360;2023-05-10T07:20:17;13.97;;;12.67;;
79128;SDS011;68529;43.286;23.360;2023-05-10T07:22:42;14.17;;;12.87;;
79128;SDS011;68529;43.286;23.360;2023-05-10T07:25:08;15.70;;;14.27;;
79128;SDS011;68529;43.286;23.360;2023-05-10T07:27:33;14.77;;;13.27;;
79128;SDS011;68529;43.286;23.360;2023-05-10T07:29:59;14.60;;;13.20;;
79128;SDS011;68529;43.286;23.360;2023-05-10T07:32:25;15.83;;;13.83;;
79128;SDS011;68529;43.286;23.360;2023-05-10T07:34:50;16.30;;;14.70;;
79128;SDS011;68529;43.286;23.360;2023-05-10T07:37:16;14.80;;;12.57;;
79128;SDS011;68529;43.286;23.360;2023-05-10T07:39:41;16.13;;;14.43;;
79128;SDS011;68529;43.286;23.360;2023-05-10T07:42:07;14.17;;;12.83;;
79128;SDS011;68529;43.286;23.360;2023-05-10T07:44:33;14.73;;;13.20;;
79128;SDS011;68529;43.286;23.360;2023-05-10T07:46:58;15.93;;;13.93;;
79128;SDS011;68529;43.286;23.360;2023-05-10T07:49:24;13.30;;;12.03;;
79128;SDS011;68529;43.286;23.360;2023-05-10T07:51:50;13.70;;;12.50;;
79128;SDS011;68529;43.286;23.360;2023-05-10T07:54:16;13.70;;;12.33;;
79128;SDS011;68529;43.286;23.360;2023-05-10T07:56:42;15.47;;;13.87;;
79128;SDS011;68529;43.286;23.360;2023-05-10T07:59:14;14.47;;;13.07;;
79128;SDS011;68529;43.286;23.360;2023-05-10T08:01:41;14.43;;;13.03;;
79128;SDS011;68529;43.286;23.360;2023-05-10T08:04:07;14.00;;;12.70;;
79128;SDS011;68529;43.286;23.360;2023-05-10T08:06:32;16.43;;;13.13;;
79128;SDS011;68529;43.286;23.360;2023-05-10T08:08:57;14.47;;;13.07;;
79128;SDS011;68529;43.286;23.360;2023-05-10T08:11:23;14.20;;;12.73;;
79128;SDS011;68529;43.286;23.360;2023-05-10T08:13:49;13.63;;;12.33;;
79128;SDS011;68529;43.286;23.360;2023-05-10T08:16:15;13.27;;;12.07;;
79128;SDS011;68529;43.286;23.360;2023-05-10T08:18:42;11.97;;;10.87;;
79128;SDS011;68529;43.286;23.360;2023-05-10T08:21:09;11.40;;;10.30;;
79128;SDS011;68529;43.286;23.360;2023-05-10T08:23:36;12.63;;;11.43;;
79128;SDS011;68529;43.286;23.360;2023-05-10T08:26:02;14.50;;;13.10;;
79128;SDS011;68529;43.286;23.360;2023-05-10T08:28:27;12.97;;;11.47;;
79128;SDS011;68529;43.286;23.360;2023-05-10T08:30:53;15.47;;;13.53;;
79128;SDS011;68529;43.286;23.360;2023-05-10T08:33:18;11.47;;;10.30;;
79128;SDS011;68529;43.286;23.360;2023-05-10T08:35:44;12.33;;;11.33;;
79128;SDS011;68529;43.286;23.360;2023-05-10T08:38:09;12.53;;;11.40;;
79128;SDS011;68529;43.286;23.360;2023-05-10T08:40:36;11.00;;;10.07;;
79128;SDS011;68529;43.286;23.360;2023-05-10T08:45:37;11.33;;;10.33;;
79128;SDS011;68529;43.286;23.360;2023-05-10T08:48:08;10.60;;;9.53;;
79128;SDS011;68529;43.286;23.360;2023-05-10T08:50:38;11.03;;;10.00;;
79128;SDS011;68529;43.286;23.360;2023-05-10T08:53:06;11.27;;;10.10;;
79128;SDS011;68529;43.286;23.360;2023-05-10T08:55:34;11.87;;;10.77;;
79128;SDS011;68529;43.286;23.360;2023-05-10T08:58:02;11.00;;;10.10;;
79128;SDS011;68529;43.286;23.360;2023-05-10T09:00:28;13.60;;;10.93;;
79128;SDS011;68529;43.286;23.360;2023-05-10T09:02:54;14.10;;;12.70;;
79128;SDS011;68529;43.286;23.360;2023-05-10T09:05:20;12.80;;;11.67;;
79128;SDS011;68529;43.286;23.360;2023-05-10T09:07:46;11.30;;;10.40;;
79128;SDS011;68529;43.286;23.360;2023-05-10T09:10:11;10.87;;;9.87;;
79128;SDS011;68529;43.286;23.360;2023-05-10T09:12:38;9.30;;;8.60;;
79128;SDS011;68529;43.286;23.360;2023-05-10T09:15:04;7.97;;;7.37;;
79128;SDS011;68529;43.286;23.360;2023-05-10T09:17:31;7.80;;;7.10;;
79128;SDS011;68529;43.286;23.360;2023-05-10T09:20:01;7.77;;;6.93;;
79128;SDS011;68529;43.286;23.360;2023-05-10T09:22:29;7.13;;;6.43;;
79128;SDS011;68529;43.286;23.360;2023-05-10T09:25:11;7.00;;;6.30;;
79128;SDS011;68529;43.286;23.360;2023-05-10T09:27:38;7.83;;;7.23;;
79128;SDS011;68529;43.286;23.360;2023-05-10T09:30:05;6.93;;;6.33;;
79128;SDS011;68529;43.286;23.360;2023-05-10T09:35:11;7.30;;;6.70;;
79128;SDS011;68529;43.286;23.360;2023-05-10T09:37:42;7.43;;;6.80;;
79128;SDS011;68529;43.286;23.360;2023-05-10T09:40:13;5.70;;;5.20;;
79128;SDS011;68529;43.286;23.360;2023-05-10T09:45:25;4.53;;;4.20;;
79128;SDS011;68529;43.286;23.360;2023-05-10T09:47:55;4.67;;;4.30;;
79128;SDS011;68529;43.286;23.360;2023-05-10T09:50:21;3.70;;;3.40;;
79128;SDS011;68529;43.286;23.360;2023-05-10T09:52:55;4.13;;;3.83;;
79128;SDS011;68529;43.286;23.360;2023-05-10T09:55:25;4.07;;;3.77;;
79128;SDS011;68529;43.286;23.360;2023-05-10T09:58:05;4.70;;;3.57;;
79128;SDS011;68529;43.286;23.360;2023-05-10T10:00:35;3.93;;;3.53;;
79128;SDS011;68529;43.286;23.360;2023-05-10T10:03:02;4.10;;;3.80;;
79128;SDS011;68529;43.286;23.360;2023-05-10T10:05:29;3.90;;;3.17;;
79128;SDS011;68529;43.286;23.360;2023-05-10T10:07:58;3.40;;;3.03;;
79128;SDS011;68529;43.286;23.360;2023-05-10T10:10:24;4.30;;;2.67;;
79128;SDS011;68529;43.286;23.360;2023-05-10T10:12:51;4.60;;;3.43;;
79128;SDS011;68529;43.286;23.360;2023-05-10T10:15:17;4.10;;;3.77;;
79128;SDS011;68529;43.286;23.360;2023-05-10T10:17:43;4.20;;;3.80;;
79128;SDS011;68529;43.286;23.360;2023-05-10T10:20:09;5.20;;;3.43;;
79128;SDS011;68529;43.286;23.360;2023-05-10T10:22:36;5.03;;;3.33;;
79128;SDS011;68529;43.286;23.360;2023-05-10T10:25:01;5.53;;;3.50;;
79128;SDS011;68529;43.286;23.360;2023-05-10T10:30:13;5.00;;;3.60;;
79128;SDS011;68529;43.286;23.360;2023-05-10T10:35:28;4.53;;;3.70;;
79128;SDS011;68529;43.286;23.360;2023-05-10T10:37:55;6.07;;;3.97;;
79128;SDS011;68529;43.286;23.360;2023-05-10T10:42:50;2.97;;;2.77;;
79128;SDS011;68529;43.286;23.360;2023-05-10T10:45:16;4.77;;;3.67;;
79128;SDS011;68529;43.286;23.360;2023-05-10T10:47:42;5.00;;;3.60;;
79128;SDS011;68529;43.286;23.360;2023-05-10T10:50:10;4.83;;;3.60;;
79128;SDS011;68529;43.286;23.360;2023-05-10T10:52:40;5.40;;;3.83;;
79128;SDS011;68529;43.286;23.360;2023-05-10T10:55:10;4.57;;;3.67;;
79128;SDS011;68529;43.286;23.360;2023-05-10T11:03:06;3.47;;;3.13;;
79128;SDS011;68529;43.286;23.360;2023-05-10T11:08:12;4.03;;;3.63;;
79128;SDS011;68529;43.286;23.360;2023-05-10T11:10:38;3.80;;;3.30;;
79128;SDS011;68529;43.286;23.360;2023-05-10T11:15:32;2.83;;;2.63;;
79128;SDS011;68529;43.286;23.360;2023-05-10T11:17:58;4.70;;;3.10;;
79128;SDS011;68529;43.286;23.360;2023-05-10T11:20:28;4.40;;;2.67;;
79128;SDS011;68529;43.286;23.360;2023-05-10T11:23:00;3.40;;;2.30;;
79128;SDS011;68529;43.286;23.360;2023-05-10T11:25:44;2.77;;;2.57;;
79128;SDS011;68529;43.286;23.360;2023-05-10T11:28:13;2.97;;;2.53;;
79128;SDS011;68529;43.286;23.360;2023-05-10T11:30:40;3.83;;;2.87;;
79128;SDS011;68529;43.286;23.360;2023-05-10T11:33:07;3.00;;;2.80;;
79128;SDS011;68529;43.286;23.360;2023-05-10T11:35:39;3.47;;;2.73;;
79128;SDS011;68529;43.286;23.360;2023-05-10T11:38:08;3.50;;;3.13;;
79128;SDS011;68529;43.286;23.360;2023-05-10T11:40:38;5.13;;;3.40;;
79128;SDS011;68529;43.286;23.360;2023-05-10T11:43:04;5.23;;;2.83;;
79128;SDS011;68529;43.286;23.360;2023-05-10T11:45:33;3.13;;;2.83;;
79128;SDS011;68529;43.286;23.360;2023-05-10T11:48:00;4.77;;;3.50;;
79128;SDS011;68529;43.286;23.360;2023-05-10T11:50:26;3.47;;;3.10;;
79128;SDS011;68529;43.286;23.360;2023-05-10T11:52:53;3.43;;;3.13;;
79128;SDS011;68529;43.286;23.360;2023-05-10T11:55:19;5.27;;;3.37;;
79128;SDS011;68529;43.286;23.360;2023-05-10T11:57:45;2.93;;;2.63;;
79128;SDS011;68529;43.286;23.360;2023-05-10T12:00:11;6.63;;;3.40;;
79128;SDS011;68529;43.286;23.360;2023-05-10T12:02:37;3.30;;;3.00;;
79128;SDS011;68529;43.286;23.360;2023-05-10T12:05:04;3.73;;;2.93;;
79128;SDS011;68529;43.286;23.360;2023-05-10T12:07:30;4.30;;;3.60;;
79128;SDS011;68529;43.286;23.360;2023-05-10T12:10:12;3.50;;;3.20;;
79128;SDS011;68529;43.286;23.360;2023-05-10T12:12:46;4.37;;;3.20;;
79128;SDS011;68529;43.286;23.360;2023-05-10T12:15:18;3.17;;;2.53;;
79128;SDS011;68529;43.286;23.360;2023-05-10T12:17:45;3.37;;;3.07;;
79128;SDS011;68529;43.286;23.360;2023-05-10T12:20:16;6.03;;;3.07;;
79128;SDS011;68529;43.286;23.360;2023-05-10T12:22:50;4.40;;;3.40;;
79128;SDS011;68529;43.286;23.360;2023-05-10T12:25:21;3.50;;;3.20;;
79128;SDS011;68529;43.286;23.360;2023-05-10T12:27:54;5.53;;;2.70;;
79128;SDS011;68529;43.286;23.360;2023-05-10T12:30:28;3.33;;;3.03;;
79128;SDS011;68529;43.286;23.360;2023-05-10T12:33:11;4.73;;;2.77;;
79128;SDS011;68529;43.286;23.360;2023-05-10T12:35:44;3.40;;;3.10;;
79128;SDS011;68529;43.286;23.360;2023-05-10T12:38:32;4.80;;;3.27;;
79128;SDS011;68529;43.286;23.360;2023-05-10T12:41:00;2.87;;;2.67;;
79128;SDS011;68529;43.286;23.360;2023-05-10T12:43:27;4.47;;;2.90;;
79128;SDS011;68529;43.286;23.360;2023-05-10T12:45:52;3.00;;;2.70;;
79128;SDS011;68529;43.286;23.360;2023-05-10T12:48:18;3.67;;;2.90;;
79128;SDS011;68529;43.286;23.360;2023-05-10T12:50:43;3.17;;;2.53;;
79128;SDS011;68529;43.286;23.360;2023-05-10T12:53:09;2.93;;;2.73;;
79128;SDS011;68529;43.286;23.360;2023-05-10T12:55:34;4.13;;;2.90;;
79128;SDS011;68529;43.286;23.360;2023-05-10T12:57:59;3.00;;;2.70;;
79128;SDS011;68529;43.286;23.360;2023-05-10T13:00:25;3.90;;;3.10;;
79128;SDS011;68529;43.286;23.360;2023-05-10T13:02:50;3.37;;;3.07;;
79128;SDS011;68529;43.286;23.360;2023-05-10T13:05:16;3.53;;;3.13;;
79128;SDS011;68529;43.286;23.360;2023-05-10T13:07:41;3.10;;;2.90;;
79128;SDS011;68529;43.286;23.360;2023-05-10T13:10:08;4.07;;;3.00;;
79128;SDS011;68529;43.286;23.360;2023-05-10T13:12:34;5.47;;;2.73;;
79128;SDS011;68529;43.286;23.360;2023-05-10T13:15:00;3.23;;;3.03;;
79128;SDS011;68529;43.286;23.360;2023-05-10T13:17:25;2.60;;;2.40;;
79128;SDS011;68529;43.286;23.360;2023-05-10T13:19:51;2.97;;;2.77;;
79128;SDS011;68529;43.286;23.360;2023-05-10T13:22:16;3.23;;;2.90;;
79128;SDS011;68529;43.286;23.360;2023-05-10T13:24:42;3.67;;;2.97;;
79128;SDS011;68529;43.286;23.360;2023-05-10T13:27:08;3.77;;;3.03;;
79128;SDS011;68529;43.286;23.360;2023-05-10T13:29:33;4.97;;;2.83;;
79128;SDS011;68529;43.286;23.360;2023-05-10T13:31:58;4.60;;;3.13;;
79128;SDS011;68529;43.286;23.360;2023-05-10T13:34:24;4.73;;;2.77;;
79128;SDS011;68529;43.286;23.360;2023-05-10T13:36:49;4.37;;;2.80;;
79128;SDS011;68529;43.286;23.360;2023-05-10T13:39:15;2.97;;;2.70;;
79128;SDS011;68529;43.286;23.360;2023-05-10T13:41:41;3.50;;;3.20;;
79128;SDS011;68529;43.286;23.360;2023-05-10T13:44:06;5.10;;;3.30;;
79128;SDS011;68529;43.286;23.360;2023-05-10T13:46:32;9.57;;;3.20;;
79128;SDS011;68529;43.286;23.360;2023-05-10T13:48:57;4.00;;;3.60;;
79128;SDS011;68529;43.286;23.360;2023-05-10T13:51:23;10.07;;;7.20;;
79128;SDS011;68529;43.286;23.360;2023-05-10T13:53:48;3.40;;;3.10;;
79128;SDS011;68529;43.286;23.360;2023-05-10T13:59:03;3.57;;;2.80;;
79128;SDS011;68529;43.286;23.360;2023-05-10T14:01:29;3.37;;;2.70;;
79128;SDS011;68529;43.286;23.360;2023-05-10T14:03:55;2.90;;;2.70;;
79128;SDS011;68529;43.286;23.360;2023-05-10T14:06:20;4.77;;;3.37;;
79128;SDS011;68529;43.286;23.360;2023-05-10T14:08:46;3.23;;;2.90;;
79128;SDS011;68529;43.286;23.360;2023-05-10T14:11:12;4.60;;;3.27;;
79128;SDS011;68529;43.286;23.360;2023-05-10T14:13:37;5.40;;;3.43;;
79128;SDS011;68529;43.286;23.360;2023-05-10T14:16:03;3.37;;;3.07;;
79128;SDS011;68529;43.286;23.360;2023-05-10T14:18:29;5.53;;;2.87;;
79128;SDS011;68529;43.286;23.360;2023-05-10T14:20:54;3.30;;;3.00;;
79128;SDS011;68529;43.286;23.360;2023-05-10T14:23:21;3.97;;;3.10;;
79128;SDS011;68529;43.286;23.360;2023-05-10T14:25:49;5.73;;;2.93;;
79128;SDS011;68529;43.286;23.360;2023-05-10T14:28:15;3.50;;;3.00;;
79128;SDS011;68529;43.286;23.360;2023-05-10T14:30:42;3.00;;;2.70;;
79128;SDS011;68529;43.286;23.360;2023-05-10T14:33:07;4.03;;;3.00;;
79128;SDS011;68529;43.286;23.360;2023-05-10T14:35:32;4.80;;;3.07;;
79128;SDS011;68529;43.286;23.360;2023-05-10T14:37:58;3.37;;;2.97;;
79128;SDS011;68529;43.286;23.360;2023-05-10T14:40:23;3.67;;;3.13;;
79128;SDS011;68529;43.286;23.360;2023-05-10T14:42:49;3.00;;;2.70;;
79128;SDS011;68529;43.286;23.360;2023-05-10T14:45:15;4.37;;;3.00;;
79128;SDS011;68529;43.286;23.360;2023-05-10T14:47:41;3.83;;;2.73;;
79128;SDS011;68529;43.286;23.360;2023-05-10T14:50:06;3.80;;;2.90;;
79128;SDS011;68529;43.286;23.360;2023-05-10T14:55:53;3.10;;;2.80;;
79128;SDS011;68529;43.286;23.360;2023-05-10T14:58:19;3.00;;;2.80;;
79128;SDS011;68529;43.286;23.360;2023-05-10T15:00:44;3.13;;;2.93;;
79128;SDS011;68529;43.286;23.360;2023-05-10T15:03:10;5.33;;;2.90;;
79128;SDS011;68529;43.286;23.360;2023-05-10T15:05:36;4.63;;;2.90;;
79128;SDS011;68529;43.286;23.360;2023-05-10T15:08:02;3.37;;;2.77;;